Time;durP1;ratioP1;P1;durP2;ratioP2;P2;SDS_P1;SDS_P2;PMS_P1;PMS_P2;Temp;Humidity;BMP_temperature;BMP_pressure;BME280_temperature;BME280_humidity;BME280_pressure;Samples;Min_cycle;Max_cycle;Signal;HPM_P1;HPM_P2
2024/01/26 00:02:00;;;;;;;10.60;2.10;;;;;;;5.73;73.00;101063.20;129935;1257;115074;-63
2024/01/26 00:05:02;;;;;;;9.50;2.00;;;;;;;5.71;72.91;101065.71;129876;1267;114779;-63
2024/01/26 00:08:05;;;;;;;10.50;2.40;;;;;;;5.69;72.87;101072.14;129891;1257;115230;-63
2024/01/26 00:11:14;;;;;;;8.50;2.80;;;;;;;5.64;72.90;101072.57;130001;1259;115302;-63
2024/01/26 00:14:16;;;;;;;12.80;2.20;;;;;;;5.62;72.97;101079.35;129668;1274;114991;-63
2024/01/26 00:17:18;;;;;;;7.90;2.90;;;;;;;5.60;73.10;101078.84;129847;1269;114695;-63
2024/01/26 00:20:20;;;;;;;11.70;2.20;;;;;;;5.58;73.17;101083.48;129918;1267;114869;-63
2024/01/26 00:23:22;;;;;;;7.20;2.10;;;;;;;5.56;73.18;101086.87;129627;1278;129827;-63
2024/01/26 00:26:24;;;;;;;7.80;2.00;;;;;;;5.56;73.41;101089.52;129717;1269;114701;-63
2024/01/26 00:29:26;;;;;;;12.80;2.80;;;;;;;5.56;73.44;101091.84;129858;1257;114781;-62
2024/01/26 00:32:28;;;;;;;9.80;1.80;;;;;;;5.57;73.47;101094.83;129735;1259;114644;-63
2024/01/26 00:35:30;;;;;;;10.80;2.40;;;;;;;5.57;73.49;101093.23;129940;1260;114818;-63
2024/01/26 00:38:32;;;;;;;14.10;2.00;;;;;;;5.58;73.59;101091.98;129918;1259;116202;-63
2024/01/26 00:41:34;;;;;;;9.30;2.00;;;;;;;5.59;73.68;101092.86;129872;1259;115635;-63
2024/01/26 00:44:37;;;;;;;15.20;3.00;;;;;;;5.60;73.84;101093.20;129918;1259;114705;-63
2024/01/26 00:47:39;;;;;;;11.30;3.10;;;;;;;5.61;73.88;101094.95;130084;1260;114867;-64
2024/01/26 00:50:41;;;;;;;9.00;2.40;;;;;;;5.63;73.93;101102.55;129569;1277;114764;-63
2024/01/26 00:53:42;;;;;;;10.60;2.80;;;;;;;5.64;74.43;101107.30;129890;1277;114962;-63
2024/01/26 00:56:45;;;;;;;11.60;2.30;;;;;;;5.66;74.61;101107.64;129934;1260;114725;-63
2024/01/26 00:59:48;;;;;;;12.70;2.30;;;;;;;5.66;74.87;101106.75;129619;1260;114882;-63
2024/01/26 01:02:51;;;;;;;13.20;3.30;;;;;;;5.66;74.89;101114.36;129885;1260;114718;-63
2024/01/26 01:05:53;;;;;;;11.60;2.50;;;;;;;5.66;75.08;101113.66;129964;1259;114717;-63
2024/01/26 01:08:55;;;;;;;11.30;2.60;;;;;;;5.66;75.20;101115.26;129998;1261;116717;-63
2024/01/26 01:11:58;;;;;;;9.80;2.50;;;;;;;5.63;75.15;101122.73;129473;1260;114728;-63
2024/01/26 01:15:00;;;;;;;12.00;2.90;;;;;;;5.60;75.23;101115.70;129992;1257;115230;-63
2024/01/26 01:18:02;;;;;;;12.00;2.40;;;;;;;5.57;75.38;101117.86;129876;1260;115404;-62
2024/01/26 01:21:04;;;;;;;9.20;2.30;;;;;;;5.54;75.54;101117.74;129962;1259;115005;-62
2024/01/26 01:24:06;;;;;;;13.20;3.00;;;;;;;5.52;75.56;101122.20;129664;1277;114789;-62
2024/01/26 01:27:08;;;;;;;10.70;2.20;;;;;;;5.51;75.88;101119.56;129872;1277;115320;-62
2024/01/26 01:30:10;;;;;;;15.90;2.90;;;;;;;5.49;76.08;101124.19;129903;1267;114778;-63
2024/01/26 01:33:12;;;;;;;9.10;2.40;;;;;;;5.45;76.52;101124.59;129510;1260;116580;-63
2024/01/26 01:36:14;;;;;;;10.30;2.40;;;;;;;5.42;76.63;101124.66;129970;1259;115963;-62
2024/01/26 01:39:16;;;;;;;10.00;2.50;;;;;;;5.38;76.43;101124.72;129933;1259;115406;-62
2024/01/26 01:42:18;;;;;;;14.00;2.30;;;;;;;5.34;76.79;101127.25;129958;1260;114754;-63
2024/01/26 01:45:21;;;;;;;10.00;2.90;;;;;;;5.32;77.04;101126.40;129953;1267;114718;-62
2024/01/26 01:48:23;;;;;;;7.90;2.50;;;;;;;5.29;77.25;101124.83;129995;1277;114709;-63
2024/01/26 01:51:26;;;;;;;8.20;2.30;;;;;;;5.26;77.02;101117.09;129739;1277;114740;-63
2024/01/26 01:54:29;;;;;;;11.50;2.80;;;;;;;5.23;77.27;101117.48;129450;1265;114802;-63
2024/01/26 01:57:31;;;;;;;9.40;2.70;;;;;;;5.22;77.63;101121.92;129818;1262;114830;-63
2024/01/26 02:00:34;;;;;;;8.00;3.00;;;;;;;5.21;77.67;101119.30;129824;1259;114724;-63
2024/01/26 02:03:36;;;;;;;12.20;2.80;;;;;;;5.20;77.71;101119.67;129770;1257;116406;-63
2024/01/26 02:06:40;;;;;;;16.00;3.70;;;;;;;5.19;77.94;101116.48;129792;1260;115381;-63
2024/01/26 02:09:42;;;;;;;12.90;3.20;;;;;;;5.18;78.08;101116.86;129750;1260;114868;-63
2024/01/26 02:12:44;;;;;;;9.80;2.40;;;;;;;5.17;78.32;101113.15;129792;1268;115384;-63
2024/01/26 02:15:46;;;;;;;15.70;2.90;;;;;;;5.14;78.39;101110.17;129664;1260;114914;-63
2024/01/26 02:18:48;;;;;;;9.10;2.40;;;;;;;5.13;78.42;101114.45;129761;1260;115243;-63
2024/01/26 02:21:50;;;;;;;16.40;3.00;;;;;;;5.10;78.40;101118.73;129877;1263;114741;-63
2024/01/26 02:24:52;;;;;;;16.00;3.10;;;;;;;5.04;78.63;101120.41;129954;1277;115074;-62
2024/01/26 02:27:54;;;;;;;10.60;2.90;;;;;;;5.01;78.92;101119.39;129942;1267;114737;-63
2024/01/26 02:30:56;;;;;;;8.40;2.80;;;;;;;4.97;79.24;101118.20;129940;1260;115404;-63
2024/01/26 02:33:58;;;;;;;15.70;3.30;;;;;;;4.93;79.44;101109.04;129610;1260;114855;-63
2024/01/26 02:37:01;;;;;;;14.90;3.40;;;;;;;4.90;79.63;101106.60;129958;1257;115061;-62
2024/01/26 02:40:03;;;;;;;12.20;3.30;;;;;;;4.86;79.66;101104.89;129990;1268;114808;-63
2024/01/26 02:43:05;;;;;;;11.20;3.80;;;;;;;4.80;79.55;101103.20;129737;1260;114755;-63
2024/01/26 02:46:11;;;;;;;9.80;3.30;;;;;;;4.70;79.20;101106.49;129874;1264;114773;-62
2024/01/26 02:49:13;;;;;;;8.80;2.80;;;;;;;4.61;79.14;101111.02;129979;1260;128995;-62
2024/01/26 02:52:15;;;;;;;7.60;3.10;;;;;;;4.51;79.15;101114.52;129910;1257;114739;-62
2024/01/26 02:55:17;;;;;;;11.20;2.80;;;;;;;4.40;79.35;101114.80;129937;1264;114782;-63
2024/01/26 02:58:19;;;;;;;12.30;3.10;;;;;;;4.28;79.15;101115.80;130006;1277;114768;-62
2024/01/26 03:01:21;;;;;;;11.20;3.20;;;;;;;4.16;79.10;101118.77;129862;1277;114718;-63
2024/01/26 03:04:23;;;;;;;10.20;2.80;;;;;;;4.03;78.97;101115.54;130057;1260;114709;-63
2024/01/26 03:07:25;;;;;;;11.70;3.60;;;;;;;3.88;79.06;101115.66;129706;1267;114921;-63
2024/01/26 03:10:28;;;;;;;9.70;2.70;;;;;;;3.76;79.21;101114.52;129883;1260;114776;-63
2024/01/26 03:13:30;;;;;;;16.20;3.80;;;;;;;3.62;79.30;101110.92;129911;1260;114709;-62
2024/01/26 03:16:33;;;;;;;11.50;3.00;;;;;;;3.50;79.56;101108.02;129934;1258;114764;-62
2024/01/26 03:19:36;;;;;;;11.70;2.70;;;;;;;3.37;79.52;101110.77;129716;1258;114847;-63
2024/01/26 03:22:38;;;;;;;10.10;3.10;;;;;;;3.26;79.75;101117.52;129918;1257;114732;-62
2024/01/26 03:25:40;;;;;;;9.30;3.40;;;;;;;3.16;80.02;101123.06;129826;1260;114737;-63
2024/01/26 03:28:42;;;;;;;17.40;4.00;;;;;;;3.07;80.09;101122.95;130017;1263;114804;-62
2024/01/26 03:31:44;;;;;;;7.30;2.60;;;;;;;2.98;80.24;101119.81;129881;1254;129129;-63
2024/01/26 03:34:46;;;;;;;13.80;2.90;;;;;;;2.92;80.57;101123.35;129929;1258;114696;-65
2024/01/26 03:37:48;;;;;;;10.90;3.50;;;;;;;2.89;80.94;101122.50;129931;1260;114744;-66
2024/01/26 03:40:50;;;;;;;9.20;2.90;;;;;;;2.88;81.28;101125.15;129578;1254;114878;-65
2024/01/26 03:43:52;;;;;;;13.60;3.20;;;;;;;2.90;81.64;101131.48;129865;1257;114706;-63
2024/01/26 03:46:54;;;;;;;8.90;2.60;;;;;;;2.94;81.85;101132.52;130046;1257;115356;-62
2024/01/26 03:49:57;;;;;;;8.80;3.40;;;;;;;2.98;82.03;101138.33;129765;1270;114750;-67
2024/01/26 03:52:59;;;;;;;11.20;3.10;;;;;;;3.03;82.35;101144.14;129925;1267;114785;-63
2024/01/26 03:56:01;;;;;;;11.30;3.50;;;;;;;3.09;82.46;101148.15;129957;1255;114786;-62
2024/01/26 03:59:04;;;;;;;9.20;4.30;;;;;;;3.15;82.76;101153.25;129966;1271;114673;-62
2024/01/26 04:02:06;;;;;;;8.10;3.10;;;;;;;3.20;82.76;101152.16;129939;1254;114940;-62
2024/01/26 04:05:09;;;;;;;11.80;3.60;;;;;;;3.26;82.88;101150.38;130021;1267;115154;-62
2024/01/26 04:08:14;;;;;;;8.10;2.80;;;;;;;3.30;82.89;101153.53;130179;1256;114769;-62
2024/01/26 04:11:15;;;;;;;14.40;2.90;;;;;;;3.35;83.00;101149.61;130063;1274;114794;-62
2024/01/26 04:14:18;;;;;;;13.70;3.90;;;;;;;3.39;83.01;101144.82;130050;1257;115151;-62
2024/01/26 04:17:20;;;;;;;11.00;3.00;;;;;;;3.40;83.02;101143.40;130025;1258;115605;-62
2024/01/26 04:20:22;;;;;;;7.40;2.80;;;;;;;3.42;83.12;101144.61;129982;1257;114725;-62
2024/01/26 04:23:24;;;;;;;9.10;2.50;;;;;;;3.44;83.06;101151.50;129618;1274;114638;-62
2024/01/26 04:26:27;;;;;;;8.80;2.70;;;;;;;3.45;83.14;101153.08;130167;1269;115109;-63
2024/01/26 04:29:30;;;;;;;12.00;2.80;;;;;;;3.47;83.28;101149.72;130076;1270;114871;-61
2024/01/26 04:32:32;;;;;;;12.00;2.30;;;;;;;3.48;83.38;101149.36;130045;1268;114626;-63
2024/01/26 04:35:34;;;;;;;8.30;2.60;;;;;;;3.48;83.41;101149.17;129707;1273;128021;-61
2024/01/26 04:38:37;;;;;;;9.00;2.80;;;;;;;3.51;83.50;101149.15;129965;1270;114912;-63
2024/01/26 04:41:40;;;;;;;13.20;3.10;;;;;;;3.53;83.62;101144.91;130136;1257;114772;-61
2024/01/26 04:44:42;;;;;;;13.50;3.00;;;;;;;3.56;83.66;101143.47;130085;1257;115141;-61
2024/01/26 04:47:45;;;;;;;12.20;3.90;;;;;;;3.59;83.89;101147.16;129771;1257;114790;-61
2024/01/26 04:50:47;;;;;;;9.50;3.10;;;;;;;3.62;83.92;101152.27;130033;1257;115067;-61
2024/01/26 04:53:49;;;;;;;11.70;2.80;;;;;;;3.65;83.90;101149.25;130018;1254;114715;-60
2024/01/26 04:56:51;;;;;;;12.30;3.60;;;;;;;3.68;84.07;101147.61;130010;1277;128904;-60
2024/01/26 04:59:53;;;;;;;8.50;2.80;;;;;;;3.72;84.10;101146.70;130004;1257;115237;-60
2024/01/26 05:02:55;;;;;;;6.90;2.60;;;;;;;3.75;84.16;101147.39;129996;1260;114741;-61
2024/01/26 05:05:57;;;;;;;7.60;3.20;;;;;;;3.78;84.28;101143.13;129692;1254;115545;-62
2024/01/26 05:08:59;;;;;;;11.00;3.30;;;;;;;3.81;84.27;101140.98;129974;1257;115138;-63
2024/01/26 05:12:01;;;;;;;9.60;3.40;;;;;;;3.86;84.38;101146.95;130165;1257;114770;-63
2024/01/26 05:15:04;;;;;;;11.80;3.30;;;;;;;3.90;84.55;101147.45;129860;1267;115389;-62
2024/01/26 05:18:06;;;;;;;9.90;3.20;;;;;;;3.93;84.60;101143.17;129955;1257;114815;-62
2024/01/26 05:21:08;;;;;;;10.10;2.80;;;;;;;3.97;84.51;101146.15;130003;1257;115241;-62
2024/01/26 05:24:10;;;;;;;10.50;2.90;;;;;;;4.01;84.52;101147.70;129991;1257;114972;-62
2024/01/26 05:27:12;;;;;;;12.80;3.00;;;;;;;4.03;84.56;101147.17;129989;1254;114664;-62
2024/01/26 05:30:16;;;;;;;11.30;3.40;;;;;;;4.04;84.37;101148.05;129931;1254;115132;-62
2024/01/26 05:33:19;;;;;;;13.40;4.40;;;;;;;4.05;84.57;101152.45;130012;1258;114722;-62
2024/01/26 05:36:21;;;;;;;13.20;3.30;;;;;;;4.08;84.59;101154.01;129883;1254;114724;-62
2024/01/26 05:39:22;;;;;;;12.10;3.30;;;;;;;4.11;84.75;101151.15;129939;1257;114795;-62
2024/01/26 05:42:24;;;;;;;14.80;3.40;;;;;;;4.14;84.78;101148.14;129653;1277;114801;-63
2024/01/26 05:45:26;;;;;;;10.90;3.30;;;;;;;4.17;84.63;101147.91;129994;1259;115243;-62
2024/01/26 05:48:28;;;;;;;8.20;3.30;;;;;;;4.19;84.57;101152.33;130081;1257;114721;-62
2024/01/26 05:51:30;;;;;;;10.50;3.10;;;;;;;4.22;84.95;101152.65;129940;1277;114808;-62
2024/01/26 05:54:32;;;;;;;9.80;3.10;;;;;;;4.24;84.93;101151.56;129845;1254;114683;-62
2024/01/26 05:57:35;;;;;;;8.00;3.30;;;;;;;4.25;84.61;101154.56;130164;1258;114805;-63
2024/01/26 06:00:44;;;;;;;9.10;3.80;;;;;;;4.25;84.81;101148.19;129761;1273;130977;-62
2024/01/26 06:03:46;;;;;;;6.40;3.10;;;;;;;4.27;84.51;101147.30;129818;1271;114782;-62
2024/01/26 06:06:48;;;;;;;8.70;2.70;;;;;;;4.28;84.57;101142.52;129773;1277;114837;-62
2024/01/26 06:09:50;;;;;;;11.80;3.20;;;;;;;4.30;84.83;101150.45;130050;1254;115224;-62
2024/01/26 06:12:52;;;;;;;7.90;3.40;;;;;;;4.28;84.64;101151.19;129594;1258;115307;-62
2024/01/26 06:15:54;;;;;;;9.80;3.20;;;;;;;4.26;84.47;101152.27;129964;1257;114780;-61
2024/01/26 06:18:56;;;;;;;7.00;3.10;;;;;;;4.21;84.45;101152.48;130043;1254;114716;-62
2024/01/26 06:21:58;;;;;;;6.70;2.70;;;;;;;4.16;84.21;101150.59;129638;1277;128342;-62
2024/01/26 06:25:00;;;;;;;8.00;3.70;;;;;;;4.07;83.90;101150.14;130041;1273;114715;-61
2024/01/26 06:28:03;;;;;;;8.70;3.00;;;;;;;3.96;83.57;101149.54;130123;1260;114788;-62
2024/01/26 06:31:05;;;;;;;8.50;3.40;;;;;;;3.83;83.21;101148.21;129769;1260;114883;-62
2024/01/26 06:34:07;;;;;;;10.30;3.10;;;;;;;3.69;83.02;101149.73;130040;1258;115407;-62
2024/01/26 06:37:09;;;;;;;9.40;3.90;;;;;;;3.54;82.91;101143.13;130038;1260;114722;-62
2024/01/26 06:40:16;;;;;;;10.80;4.00;;;;;;;3.40;82.85;101145.17;129587;1264;114884;-61
2024/01/26 06:43:19;;;;;;;10.70;3.60;;;;;;;3.27;82.70;101147.53;129991;1262;127620;-64
2024/01/26 06:46:24;;;;;;;12.30;3.20;;;;;;;3.14;82.75;101145.13;129783;1262;114764;-63
2024/01/26 06:49:27;;;;;;;11.20;4.10;;;;;;;3.02;82.90;101150.67;129995;1254;114741;-63
2024/01/26 06:52:30;;;;;;;13.00;3.10;;;;;;;2.91;82.95;101155.65;130172;1254;114794;-63
2024/01/26 06:55:35;;;;;;;15.60;4.30;;;;;;;2.81;82.90;101154.45;129891;1260;115235;-63
2024/01/26 06:58:40;;;;;;;9.10;2.90;;;;;;;2.72;83.18;101149.90;129710;1277;127873;-63
2024/01/26 07:01:41;;;;;;;7.80;3.60;;;;;;;2.65;83.41;101140.76;130026;1270;114826;-63
2024/01/26 07:04:46;;;;;;;10.70;4.10;;;;;;;2.60;83.44;101139.02;130051;1254;114728;-62
2024/01/26 07:07:48;;;;;;;12.40;4.20;;;;;;;2.54;83.28;101143.61;129969;1260;116233;-62
2024/01/26 07:10:50;;;;;;;11.60;4.10;;;;;;;2.51;83.53;101141.15;130059;1258;114705;-62
2024/01/26 07:13:53;;;;;;;11.60;4.40;;;;;;;2.48;83.65;101143.27;130075;1258;114703;-63
2024/01/26 07:16:55;;;;;;;13.10;4.90;;;;;;;2.45;83.77;101148.92;130077;1259;114720;-63
2024/01/26 07:19:57;;;;;;;11.40;4.30;;;;;;;2.43;83.81;101153.50;129794;1272;114693;-63
2024/01/26 07:22:59;;;;;;;13.80;3.80;;;;;;;2.41;83.77;101149.10;130062;1277;114757;-62
2024/01/26 07:26:02;;;;;;;11.30;3.20;;;;;;;2.38;83.83;101146.65;130020;1257;114667;-62
2024/01/26 07:29:04;;;;;;;11.10;4.10;;;;;;;2.37;83.90;101139.77;129961;1257;114762;-62
2024/01/26 07:32:09;;;;;;;7.90;3.60;;;;;;;2.36;84.01;101145.42;129955;1257;114707;-62
2024/01/26 07:35:11;;;;;;;10.10;4.70;;;;;;;2.36;83.95;101138.89;129499;1262;114744;-63
2024/01/26 07:38:13;;;;;;;10.60;3.50;;;;;;;2.37;84.16;101137.48;129883;1257;114920;-63
2024/01/26 07:41:15;;;;;;;12.10;4.50;;;;;;;2.43;84.26;101136.58;130066;1253;114635;-63
2024/01/26 07:44:18;;;;;;;13.80;6.00;;;;;;;2.50;84.58;101137.98;129672;1277;114942;-62
2024/01/26 07:47:20;;;;;;;13.60;5.00;;;;;;;2.60;84.69;101137.42;129916;1267;114770;-63
2024/01/26 07:50:22;;;;;;;10.60;6.10;;;;;;;2.71;85.13;101139.32;129961;1259;114719;-64
2024/01/26 07:53:24;;;;;;;11.90;5.90;;;;;;;2.84;85.30;101133.98;129489;1257;116357;-62
2024/01/26 07:56:26;;;;;;;16.30;6.10;;;;;;;3.01;85.52;101125.61;129844;1257;114719;-62
2024/01/26 07:59:28;;;;;;;8.60;4.60;;;;;;;3.17;85.52;101121.29;130144;1257;115359;-63
2024/01/26 08:02:30;;;;;;;17.80;6.50;;;;;;;3.33;85.52;101121.90;129635;1266;128586;-62
2024/01/26 08:05:32;;;;;;;83.80;33.40;;;;;;;3.52;85.57;101126.55;129702;1255;114766;-63
2024/01/26 08:08:37;;;;;;;86.90;31.40;;;;;;;3.68;85.47;101126.77;130000;1258;114797;-63
2024/01/26 08:11:39;;;;;;;40.60;14.90;;;;;;;3.81;85.48;101125.95;129849;1270;115084;-62
2024/01/26 08:14:42;;;;;;;41.90;16.80;;;;;;;3.93;85.37;101118.80;129954;1257;114779;-63
2024/01/26 08:17:44;;;;;;;61.30;22.30;;;;;;;4.07;85.38;101121.50;130015;1277;114965;-63
2024/01/26 08:20:46;;;;;;;43.00;16.30;;;;;;;4.20;85.36;101116.06;129410;1259;114787;-63
2024/01/26 08:23:48;;;;;;;23.80;8.30;;;;;;;4.33;85.38;101112.94;129440;1262;115391;-63
2024/01/26 08:26:50;;;;;;;16.60;5.90;;;;;;;4.45;85.20;101114.05;129516;1262;114895;-63
2024/01/26 08:29:52;;;;;;;16.20;5.60;;;;;;;4.55;85.12;101111.98;129483;1281;114898;-63
2024/01/26 08:32:55;;;;;;;15.00;5.60;;;;;;;4.63;84.95;101113.13;129386;1263;114883;-64
2024/01/26 08:35:56;;;;;;;12.90;5.60;;;;;;;4.72;84.92;101108.25;129464;1262;114907;-66
2024/01/26 08:38:59;;;;;;;30.00;11.00;;;;;;;4.81;84.78;101104.05;129715;1268;114770;-64
2024/01/26 08:42:02;;;;;;;64.40;26.00;;;;;;;4.93;84.92;101093.81;129935;1269;114717;-64
2024/01/26 08:45:05;;;;;;;53.90;23.70;;;;;;;5.05;84.80;101091.17;129989;1268;114638;-62
2024/01/26 08:48:07;;;;;;;37.80;15.60;;;;;;;5.18;84.83;101083.91;129923;1277;114717;-63
2024/01/26 08:51:09;;;;;;;36.80;12.80;;;;;;;5.34;84.76;101081.90;129968;1271;115170;-63
2024/01/26 08:54:12;;;;;;;25.30;8.10;;;;;;;5.50;84.56;101087.85;129708;1258;114847;-64
2024/01/26 08:57:15;;;;;;;20.70;6.60;;;;;;;5.65;84.61;101093.83;129869;1257;115379;-64
2024/01/26 09:00:19;;;;;;;18.80;6.00;;;;;;;5.79;84.71;101102.25;130030;1258;114712;-66
2024/01/26 09:03:21;;;;;;;24.50;8.90;;;;;;;5.91;84.35;101102.25;129922;1258;114785;-64
2024/01/26 09:06:23;;;;;;;13.20;5.70;;;;;;;6.02;84.26;101105.46;129899;1254;114801;-63
2024/01/26 09:09:25;;;;;;;15.50;5.80;;;;;;;6.13;84.05;101102.80;130019;1257;114725;-62
2024/01/26 09:12:27;;;;;;;22.30;6.20;;;;;;;6.25;84.06;101094.77;130054;1253;114758;-62
2024/01/26 09:15:30;;;;;;;17.40;5.30;;;;;;;6.38;83.84;101089.00;129872;1257;114730;-63
2024/01/26 09:18:32;;;;;;;16.70;5.10;;;;;;;6.49;83.47;101083.48;130039;1266;114983;-63
2024/01/26 09:21:34;;;;;;;17.00;5.80;;;;;;;6.58;83.25;101073.72;129664;1257;116420;-62
2024/01/26 09:24:36;;;;;;;16.90;5.90;;;;;;;6.66;83.19;101074.96;129956;1254;114770;-62
2024/01/26 09:27:38;;;;;;;18.70;6.10;;;;;;;6.74;82.91;101071.61;130063;1257;114796;-63
2024/01/26 09:30:40;;;;;;;22.90;9.70;;;;;;;6.78;82.95;101068.87;129715;1259;115062;-63
2024/01/26 09:33:42;;;;;;;23.00;8.00;;;;;;;6.87;82.68;101071.52;129962;1277;114814;-63
2024/01/26 09:36:44;;;;;;;16.00;6.30;;;;;;;6.93;82.27;101061.98;129647;1262;114741;-63
2024/01/26 09:39:46;;;;;;;14.50;5.90;;;;;;;7.02;82.65;101052.34;129553;1264;114867;-64
2024/01/26 09:42:48;;;;;;;15.70;6.90;;;;;;;7.14;82.64;101047.83;129851;1269;114717;-63
2024/01/26 09:45:53;;;;;;;19.40;8.20;;;;;;;7.27;82.54;101039.53;130014;1272;114827;-63
2024/01/26 09:48:57;;;;;;;31.60;16.20;;;;;;;7.39;82.13;101040.30;129523;1264;129438;-63
2024/01/26 09:51:59;;;;;;;23.60;11.40;;;;;;;7.51;82.07;101046.77;129618;1277;114780;-63
2024/01/26 09:55:02;;;;;;;20.00;7.30;;;;;;;7.62;81.84;101045.78;129827;1259;114782;-64
2024/01/26 09:58:05;;;;;;;18.50;7.90;;;;;;;7.71;81.44;101046.78;130063;1253;114764;-63
2024/01/26 10:01:09;;;;;;;16.80;5.10;;;;;;;7.79;81.00;101031.48;130061;1257;114788;-63
2024/01/26 10:04:12;;;;;;;16.60;5.00;;;;;;;7.83;80.80;101021.23;129995;1259;115439;-63
2024/01/26 10:07:15;;;;;;;17.00;5.70;;;;;;;7.90;80.28;101008.41;129725;1261;114782;-63
2024/01/26 10:10:17;;;;;;;16.10;4.90;;;;;;;7.97;80.33;100999.70;129966;1257;114699;-64
2024/01/26 10:13:19;;;;;;;16.50;4.80;;;;;;;8.04;80.16;100999.50;129785;1253;114827;-62
2024/01/26 10:16:21;;;;;;;19.10;5.30;;;;;;;8.12;79.58;100996.25;129973;1258;115215;-63
2024/01/26 10:19:27;;;;;;;15.70;5.40;;;;;;;8.18;79.49;100988.42;130048;1253;114769;-62
2024/01/26 10:22:29;;;;;;;12.90;4.00;;;;;;;8.26;79.28;100985.19;130014;1255;114637;-63
2024/01/26 10:25:32;;;;;;;12.00;5.00;;;;;;;8.35;79.42;100981.17;129929;1258;114751;-64
2024/01/26 10:28:34;;;;;;;14.70;4.70;;;;;;;8.39;78.50;100969.67;130078;1254;114876;-63
2024/01/26 10:31:46;;;;;;;12.40;3.90;;;;;;;8.41;78.32;100965.88;130024;1259;114811;-63
2024/01/26 10:34:49;;;;;;;13.10;4.40;;;;;;;8.44;77.87;100951.75;129871;1254;115107;-63
2024/01/26 10:37:51;;;;;;;17.50;7.40;;;;;;;8.48;77.45;100943.45;129953;1258;114745;-64
2024/01/26 10:40:58;;;;;;;12.40;4.90;;;;;;;8.49;77.25;100942.70;129923;1267;114668;-64
2024/01/26 10:44:01;;;;;;;13.10;4.10;;;;;;;8.49;76.97;100937.89;129853;1277;129107;-64
2024/01/26 10:47:04;;;;;;;10.10;3.60;;;;;;;8.50;76.46;100925.23;129853;1254;114839;-64
2024/01/26 10:50:09;;;;;;;11.60;3.80;;;;;;;8.55;76.44;100919.21;129802;1256;114706;-64
2024/01/26 10:53:12;;;;;;;57.40;20.80;;;;;;;8.61;76.12;100912.95;129493;1264;115103;-64
2024/01/26 10:56:14;;;;;;;41.00;18.10;;;;;;;8.69;76.30;100909.35;129944;1273;114732;-63
2024/01/26 10:59:17;;;;;;;27.50;13.30;;;;;;;8.74;75.68;100904.55;129949;1254;114821;-64
2024/01/26 11:02:33;;;;;;;24.60;11.10;;;;;;;8.75;75.56;100904.70;130195;1254;115134;-63
2024/01/26 11:05:35;;;;;;;18.90;8.70;;;;;;;8.78;75.18;100898.17;129954;1254;114795;-63
2024/01/26 11:08:40;;;;;;;19.90;13.10;;;;;;;8.83;74.69;100894.64;130017;1253;114709;-63
2024/01/26 11:11:42;;;;;;;16.60;5.60;;;;;;;8.88;74.78;100891.28;129731;1270;194678;-63
2024/01/26 11:14:47;;;;;;;24.80;11.70;;;;;;;8.90;74.15;100884.08;129949;1259;114781;-64
2024/01/26 11:17:50;;;;;;;15.50;7.40;;;;;;;8.95;74.34;100866.46;129947;1273;127729;-63
2024/01/26 11:20:52;;;;;;;16.40;8.00;;;;;;;9.00;73.67;100851.67;129659;1253;114884;-63
2024/01/26 11:24:11;;;;;;;21.80;12.20;;;;;;;9.02;73.29;100840.55;129945;1257;115560;-63
2024/01/26 11:27:14;;;;;;;22.80;11.30;;;;;;;8.96;72.50;100836.28;129515;1261;114743;-63
2024/01/26 11:30:35;;;;;;;16.20;8.60;;;;;;;8.94;72.36;100823.39;129901;1253;114728;-63
2024/01/26 11:33:39;;;;;;;21.90;14.70;;;;;;;8.90;71.73;100812.83;129795;1269;128953;-63
2024/01/26 11:36:41;;;;;;;12.70;7.10;;;;;;;8.84;71.87;100812.86;129624;1254;116545;-68
2024/01/26 11:39:44;;;;;;;10.50;6.40;;;;;;;8.84;71.46;100812.70;129771;1257;115034;-64
2024/01/26 11:42:49;;;;;;;12.40;5.40;;;;;;;8.78;71.29;100812.50;129988;1256;115688;-66
2024/01/26 11:45:52;;;;;;;4.30;2.40;;;;;;;8.76;71.37;100806.02;129692;1259;115297;-63
2024/01/26 11:48:57;;;;;;;12.00;6.20;;;;;;;8.76;70.92;100798.16;129950;1259;115154;-64
2024/01/26 11:51:59;;;;;;;13.50;7.10;;;;;;;8.78;70.52;100794.34;129709;1260;114758;-66
2024/01/26 11:55:02;;;;;;;16.90;7.60;;;;;;;8.83;70.65;100782.45;129670;1254;115372;-63
2024/01/26 11:58:06;;;;;;;14.00;9.30;;;;;;;8.91;70.51;100771.28;130071;1257;114737;-64
2024/01/26 12:01:08;;;;;;;7.90;4.00;;;;;;;9.01;69.92;100764.88;130050;1269;114732;-66
2024/01/26 12:04:10;;;;;;;21.30;12.50;;;;;;;9.05;69.41;100763.49;129961;1257;114839;-66
2024/01/26 12:07:14;;;;;;;18.50;8.50;;;;;;;9.06;69.69;100754.90;129732;1261;129006;-64
2024/01/26 12:10:17;;;;;;;25.60;14.60;;;;;;;9.04;69.66;100748.73;129895;1257;114760;-65
2024/01/26 12:13:21;;;;;;;10.70;6.40;;;;;;;9.06;69.47;100735.48;129478;1263;114837;-63
2024/01/26 12:16:24;;;;;;;13.80;7.30;;;;;;;9.06;68.81;100730.15;129908;1257;115073;-65
2024/01/26 12:19:27;;;;;;;10.50;4.10;;;;;;;9.06;68.53;100729.97;129964;1253;114732;-65
2024/01/26 12:22:28;;;;;;;6.10;3.30;;;;;;;9.05;68.13;100722.68;129983;1276;114715;-67
2024/01/26 12:25:31;;;;;;;8.30;4.10;;;;;;;9.04;67.95;100713.48;129843;1257;128782;-63
2024/01/26 12:28:34;;;;;;;8.60;3.80;;;;;;;8.98;67.93;100713.84;130051;1256;115404;-63
2024/01/26 12:31:37;;;;;;;6.30;3.50;;;;;;;8.96;68.04;100711.42;129855;1254;114789;-63
2024/01/26 12:34:41;;;;;;;7.60;2.50;;;;;;;8.98;67.53;100701.76;130150;1261;114709;-63
2024/01/26 12:37:46;;;;;;;6.70;3.30;;;;;;;8.94;67.28;100681.38;130054;1256;114717;-64
2024/01/26 12:40:48;;;;;;;9.30;2.70;;;;;;;8.88;66.87;100668.23;129680;1266;128449;-64
2024/01/26 12:43:50;;;;;;;11.30;5.30;;;;;;;8.80;66.89;100658.91;129921;1256;114760;-65
2024/01/26 12:46:52;;;;;;;6.40;2.90;;;;;;;8.77;67.44;100649.58;129959;1259;115008;-65
2024/01/26 12:49:55;;;;;;;7.00;2.40;;;;;;;8.78;67.34;100638.17;129875;1257;114794;-64
2024/01/26 12:52:58;;;;;;;9.00;6.10;;;;;;;8.75;66.81;100633.13;129811;1253;117007;-63
2024/01/26 12:56:00;;;;;;;9.70;4.00;;;;;;;8.70;67.34;100638.29;129911;1257;114718;-63
2024/01/26 12:59:01;;;;;;;6.20;2.70;;;;;;;8.68;67.19;100636.74;129943;1277;114703;-63
2024/01/26 13:02:04;;;;;;;10.40;5.00;;;;;;;8.65;67.24;100632.58;129499;1257;130518;-63
2024/01/26 13:05:08;;;;;;;12.40;4.50;;;;;;;8.65;67.53;100621.52;129679;1259;115264;-66
2024/01/26 13:08:12;;;;;;;9.10;3.50;;;;;;;8.69;67.97;100606.27;129930;1257;114775;-63
2024/01/26 13:11:14;;;;;;;26.60;19.40;;;;;;;8.72;67.96;100600.23;130029;1257;114709;-63
2024/01/26 13:14:16;;;;;;;24.00;15.20;;;;;;;8.76;68.13;100599.27;129896;1258;114795;-64
2024/01/26 13:17:18;;;;;;;16.40;8.20;;;;;;;8.82;68.30;100597.92;129871;1277;114792;-63
2024/01/26 13:20:21;;;;;;;15.50;7.30;;;;;;;8.88;68.46;100588.80;129927;1254;115347;-65
2024/01/26 13:23:23;;;;;;;13.70;6.50;;;;;;;8.89;68.23;100584.15;129570;1260;114894;-63
2024/01/26 13:26:25;;;;;;;10.80;4.70;;;;;;;8.89;68.20;100584.34;129865;1257;114769;-64
2024/01/26 13:29:27;;;;;;;14.60;8.40;;;;;;;8.88;68.03;100585.08;130013;1254;114709;-64
2024/01/26 13:32:29;;;;;;;13.00;5.40;;;;;;;8.86;68.02;100573.77;130032;1259;114691;-63
2024/01/26 13:35:32;;;;;;;10.20;4.20;;;;;;;8.82;67.98;100565.89;129952;1270;114694;-63
2024/01/26 13:38:34;;;;;;;9.20;4.40;;;;;;;8.76;68.02;100557.73;129894;1277;114749;-64
2024/01/26 13:41:40;;;;;;;12.90;5.50;;;;;;;8.69;68.08;100550.36;129913;1257;114702;-64
2024/01/26 13:44:44;;;;;;;10.60;3.60;;;;;;;8.58;68.27;100544.70;129906;1253;114810;-63
2024/01/26 13:47:47;;;;;;;11.30;4.30;;;;;;;8.54;68.72;100544.14;129958;1259;114714;-64
2024/01/26 13:50:50;;;;;;;8.90;4.10;;;;;;;8.52;68.65;100540.30;129876;1257;114767;-63
2024/01/26 13:53:53;;;;;;;14.40;4.00;;;;;;;8.50;68.96;100540.19;129986;1277;114807;-63